Latest Weather Observations for Cape Borda

IDS60801

Issued at 9:01 pm CST Tuesday 19 September 2017 (issued every 30 minutes, with the page automatically refreshed every 10 minutes)

About weather observations | Map of weather stations | Latest weather observations for SA | Other Formats
Station Details ID: 022823 Name: CAPE BORDA Lat: -35.75 Lon: 136.60 Height: 158.0 m
Data from the previous 72 hours. | See also: Recent months at Cape Borda
Date/Time
CST
Temp
°C
App
Temp
°C
Dew
Point
°C
Rel
Hum
%
Delta-T
°C
Wind Press
QNH
hPa
Press
MSL
hPa
Rain since
9am
mm
Dir  Spd
km/h
Gust
km/h
Spd
kts
Gust
kts
19/09:00pm 11.1 6.5 6.4 73 2.2 N 20 26 11 14 1020.9 1020.9 0.0
19/08:30pm 11.0 7.7 6.3 73 2.2 N 13 20 7 11 1021.6 - 0.0
19/08:00pm 10.9 7.6 6.4 74 2.1 N 13 19 7 10 1021.5 - 0.0
19/07:30pm 10.9 7.6 6.2 73 2.2 N 13 20 7 11 1021.4 - 0.0
19/07:00pm 11.1 7.8 6.2 72 2.3 N 13 17 7 9 1021.1 - 0.0
19/06:30pm 11.0 7.6 5.9 71 2.4 NNW 13 17 7 9 1021.4 - 0.0
19/06:00pm 11.5 8.1 6.0 69 2.6 NNW 13 20 7 11 1021.3 1021.3 0.0
19/05:30pm 11.8 8.1 6.1 68 2.7 NNW 15 20 8 11 1021.6 - 0.0
19/05:00pm 12.0 8.3 6.1 67 2.8 NNW 15 20 8 11 1021.7 - 0.0
19/04:30pm 12.8 8.6 5.8 62 3.3 NNW 17 22 9 12 1021.6 - 0.0
19/04:00pm 12.8 8.9 5.3 60 3.5 NNW 15 20 8 11 1021.7 - 0.0
19/03:30pm 13.3 9.5 5.7 60 3.6 NNW 15 22 8 12 1021.9 - 0.0
19/03:00pm 12.5 9.3 6.7 68 2.8 N 13 17 7 9 1022.2 1022.3 0.0
19/02:30pm 12.5 8.8 6.4 66 2.9 NNW 15 20 8 11 1022.5 - 0.0
19/02:00pm 12.7 9.1 6.7 67 2.9 N 15 19 8 10 1022.6 - 0.0
19/01:30pm 13.2 9.5 6.1 62 3.4 NNW 15 20 8 11 1023.1 - 0.0
19/01:00pm 13.2 9.7 7.3 67 2.9 N 15 20 8 11 1023.4 - 0.0
19/12:30pm 12.5 9.3 6.9 68 2.7 N 13 17 7 9 1023.7 - 0.0
19/12:00pm 12.5 9.8 7.4 71 2.5 NNW 11 15 6 8 1023.9 1024.0 0.0
19/11:30am 12.2 9.2 7.5 73 2.3 NNW 13 17 7 9 1024.0 - 0.0
19/11:00am 12.1 9.1 6.2 67 2.8 NW 11 15 6 8 1024.1 - 0.0
19/10:30am 12.1 9.1 6.2 67 2.8 WNW 11 17 6 9 1024.2 - 0.0
19/10:00am 11.3 7.2 6.4 72 2.3 WNW 17 20 9 11 1024.4 - 0.0
19/09:30am 11.0 7.4 6.8 75 2.0 WSW 15 24 8 13 1024.4 - 0.0
19/09:00am 11.1 6.5 6.4 73 2.2 W 20 26 11 14 1024.3 1024.4 2.6
19/08:30am 10.8 7.3 5.4 69 2.5 SW 13 20 7 11 1024.0 - 2.6
19/08:00am 10.1 8.6 6.9 80 1.5 SSE 4 7 2 4 1023.8 - 2.6
19/07:30am 9.8 6.9 6.6 80 1.5 S 11 15 6 8 1023.5 - 2.6
19/07:00am 9.4 5.9 5.4 76 1.8 SW 13 17 7 9 1023.2 - 2.6
19/06:30am 9.4 5.3 6.2 80 1.5 SSW 17 24 9 13 1022.8 - 2.6
19/06:00am 9.1 4.6 6.1 81 1.4 SW 19 35 10 19 1022.5 1022.6 2.6
19/05:30am 9.0 5.4 6.6 85 1.1 SW 15 28 8 15 1022.1 - 2.6
19/05:00am 9.4 3.8 7.1 85 1.1 SW 26 37 14 20 1022.0 - 2.2
19/04:30am 10.4 5.3 3.9 64 2.9 SW 20 30 11 16 1021.7 - 2.0
19/04:00am 10.3 4.1 4.5 67 2.6 SW 26 35 14 19 1021.7 - 2.0
19/03:30am 10.3 4.2 4.8 69 2.5 SW 26 35 14 19 1021.5 - 2.0
19/03:00am 10.1 5.0 4.0 66 2.7 SW 20 30 11 16 1021.5 1021.5 2.0
19/02:30am 9.4 4.1 5.0 74 2.0 SW 22 33 12 18 1021.6 - 2.0
19/02:00am 9.2 3.1 6.6 84 1.2 WSW 28 41 15 22 1021.8 - 2.0
19/01:41am 10.4 4.3 6.8 78 1.7 WSW 28 48 15 26 1021.9 - 1.8
19/01:30am 10.2 3.4 3.3 62 3.0 SW 28 35 15 19 1021.9 - 1.8
19/01:00am 10.4 3.9 4.9 69 2.5 SW 28 41 15 22 1021.8 - 1.8
19/12:30am 10.0 4.8 7.1 82 1.4 SW 24 35 13 19 1021.8 - 1.8
19/12:17am 9.8 3.8 7.1 83 1.3 WSW 28 46 15 25 1021.7 - 1.8
19/12:00am 10.3 2.7 3.7 63 2.9 SW 33 43 18 23 1021.6 1021.6 1.8
 
Date/Time
CST
Temp
°C
App
Temp
°C
Dew
Point
°C
Rel
Hum
%
Delta-T
°C
Wind Press
QNH
hPa
Press
MSL
hPa
Rain since
9am
mm
Dir  Spd
km/h
Gust
km/h
Spd
kts
Gust
kts
18/11:30pm 10.4 4.4 5.1 69 2.4 SW 26 41 14 22 1021.4 - 1.8
18/11:00pm 10.2 2.9 4.7 68 2.5 SW 32 43 17 23 1021.5 - 1.8
18/10:30pm 9.8 3.7 6.8 81 1.4 SW 28 44 15 24 1021.6 - 1.8
18/10:12pm 10.6 3.3 4.4 65 2.8 SW 32 50 17 27 1021.3 - 1.8
18/10:00pm 10.4 3.5 4.4 66 2.7 SW 30 43 16 23 1021.2 - 1.8
18/09:30pm 10.5 3.6 4.8 68 2.6 SW 30 43 16 23 1020.9 - 1.8
18/09:00pm 10.3 3.2 5.3 71 2.3 SW 32 46 17 25 1020.6 1020.7 1.8
18/08:34pm 10.5 4.0 6.5 76 1.9 SSW 30 48 16 26 1020.4 - 1.8
18/08:30pm 10.4 3.4 5.9 73 2.1 SW 32 46 17 25 1020.3 - 1.8
18/08:05pm 10.5 3.4 5.3 70 2.4 SW 32 50 17 27 1020.0 - 1.8
18/08:00pm 10.5 3.3 5.8 72 2.2 SW 33 46 18 25 1019.9 - 1.8
18/07:30pm 10.0 3.1 7.1 82 1.4 SW 33 50 18 27 1019.5 - 1.8
18/07:22pm 10.3 3.5 6.9 79 1.6 SW 32 50 17 27 1019.3 - 1.8
18/07:00pm 9.8 3.9 7.7 87 1.0 SW 28 41 15 22 1018.8 - 1.8
18/06:30pm 9.6 2.8 6.8 83 1.3 SW 32 50 17 27 1018.3 - 1.6
18/06:00pm 9.6 3.2 7.1 84 1.2 SW 30 48 16 26 1017.8 1017.9 1.6
18/05:38pm 10.1 2.4 7.2 82 1.4 WSW 37 67 20 36 1017.4 - 1.4
18/05:30pm 9.8 3.5 7.3 84 1.2 WSW 30 48 16 26 1017.3 - 1.4
18/05:00pm 11.3 3.0 6.2 71 2.4 WSW 39 57 21 31 1016.7 - 0.8
18/04:30pm 10.3 2.3 7.4 82 1.4 WSW 39 59 21 32 1016.5 - 0.6
18/04:00pm 12.1 2.9 3.6 56 3.8 WSW 41 59 22 32 1015.9 - 0.4
18/03:30pm 12.2 3.1 4.0 57 3.7 WSW 41 65 22 35 1015.6 - 0.4
18/03:00pm 12.0 3.8 4.8 61 3.3 WSW 37 57 20 31 1015.3 1015.3 0.4
18/02:36pm 12.8 4.0 3.8 54 4.1 WSW 39 59 21 32 1015.1 - 0.4
18/02:30pm 12.8 3.5 3.2 52 4.3 WSW 41 56 22 30 1015.1 - 0.4
18/02:00pm 13.4 4.1 3.2 50 4.6 WSW 41 61 22 33 1014.6 - 0.2
18/01:30pm 13.5 4.9 4.4 54 4.2 WSW 39 59 21 32 1014.5 - 0.2
18/01:04pm 12.5 4.3 2.8 51 4.3 WSW 35 54 19 29 1014.5 - 0.2
18/01:00pm 13.1 5.1 3.6 52 4.3 WSW 35 52 19 28 1014.5 - 0.2
18/12:42pm 12.6 2.7 1.7 47 4.7 WSW 43 69 23 37 1014.3 - 0.2
18/12:30pm 13.1 5.9 5.2 58 3.7 WSW 32 50 17 27 1014.3 - 0.2
18/12:02pm 12.5 3.4 3.9 56 3.9 WSW 41 59 22 32 1014.2 - 0.2
18/12:00pm 12.7 3.6 4.2 56 3.9 WSW 41 56 22 30 1014.2 1014.2 0.2
18/11:30am 12.5 3.3 5.5 62 3.3 WSW 43 67 23 36 1013.2 - 0.2
18/11:00am 12.4 3.6 5.6 63 3.2 WSW 41 59 22 32 1013.2 - 0.2
18/10:30am 12.6 4.1 7.0 68 2.7 WSW 41 63 22 34 1012.8 - 0.2
18/10:00am 12.1 3.0 5.7 65 3.0 WSW 43 61 23 33 1012.5 - 0.2
18/09:30am 12.3 4.5 8.3 76 2.0 WSW 39 59 21 32 1012.1 - 0.2
18/09:01am 11.2 3.8 10.0 92 0.6 W 39 59 21 32 1011.6 - 0.2
18/09:00am 11.2 3.8 9.8 91 0.7 W 39 56 21 30 1011.6 1011.7 2.6
18/08:33am 12.0 4.1 10.7 92 0.7 W 43 61 23 33 1011.1 - 0.8
18/08:30am 12.3 4.4 10.8 90 0.8 W 43 57 23 31 1011.1 - 0.6
18/08:19am 13.8 7.5 11.2 84 1.4 WNW 35 57 19 31 1010.6 - 0.4
18/08:00am 13.5 8.4 11.8 89 0.9 WNW 30 46 16 25 1010.4 - 0.4
18/07:30am 13.2 7.5 11.3 88 1.0 WNW 32 50 17 27 1010.2 - 0.4
18/07:00am 13.2 6.4 10.5 84 1.4 WNW 37 50 20 27 1010.0 - 0.4
18/06:30am 13.1 6.6 10.4 84 1.4 WNW 35 46 19 25 1010.1 - 0.0
18/06:00am 13.3 7.3 10.8 85 1.3 WNW 33 48 18 26 1009.8 1009.8 0.0
18/05:30am 13.0 6.9 10.5 85 1.3 WNW 33 46 18 25 1009.7 - 0.0
18/05:00am 13.3 8.0 11.2 87 1.1 W 30 44 16 24 1009.6 - 0.0
18/04:30am 13.1 8.5 11.0 87 1.1 W 26 33 14 18 1009.4 - 0.0
18/04:00am 13.0 7.8 10.3 84 1.4 W 28 37 15 20 1009.3 - 0.0
18/03:30am 12.8 8.4 10.5 86 1.2 W 24 33 13 18 1009.2 - 0.0
18/03:00am 12.9 9.5 11.2 89 0.9 W 20 30 11 16 1009.0 1009.0 0.0
18/02:30am 13.1 9.0 11.6 91 0.8 W 24 32 13 17 1009.3 - 0.0
18/02:00am 13.3 10.2 12.2 93 0.6 W 20 26 11 14 1009.4 - 0.0
18/01:30am 13.5 10.8 11.8 89 0.9 WSW 17 24 9 13 1009.0 - 0.0
18/01:00am 14.0 9.9 11.4 84 1.4 WSW 24 32 13 17 1009.2 - 0.0
18/12:30am 15.7 12.3 10.7 72 2.7 NNW 19 26 10 14 1008.9 - 0.0
18/12:00am 16.4 12.1 9.3 63 3.7 NNW 22 32 12 17 1008.9 1008.9 0.0
 
Date/Time
CST
Temp
°C
App
Temp
°C
Dew
Point
°C
Rel
Hum
%
Delta-T
°C
Wind Press
QNH
hPa
Press
MSL
hPa
Rain since
9am
mm
Dir  Spd
km/h
Gust
km/h
Spd
kts
Gust
kts
17/11:30pm 17.3 11.0 7.4 52 5.0 NNW 30 41 16 22 1009.2 - 0.0
17/11:16pm 17.6 9.9 6.9 49 5.4 NNW 37 48 20 26 1009.4 - 0.0
17/11:00pm 16.8 12.1 9.2 61 4.0 NW 24 32 13 17 1010.0 - 0.0
17/10:30pm 17.4 11.3 8.1 54 4.8 N 30 43 16 23 1009.1 - 0.0
17/10:00pm 17.5 11.6 7.7 52 5.0 N 28 37 15 20 1009.6 - 0.0
17/09:30pm 16.7 11.9 8.8 59 4.1 NNE 24 35 13 19 1010.2 - 0.0
17/09:00pm 15.9 11.2 9.4 65 3.4 NE 24 39 13 21 1010.4 1010.4 0.0
17/08:30pm 16.2 11.1 9.1 63 3.7 NE 26 33 14 18 1011.1 - 0.0
17/08:00pm 18.2 11.2 6.1 45 6.0 NNE 32 44 17 24 1011.4 - 0.0
17/07:30pm 17.4 11.7 6.8 49 5.3 NNE 26 44 14 24 1011.7 - 0.0
17/07:00pm 16.8 12.0 7.3 53 4.8 NE 22 32 12 17 1012.1 - 0.0
17/06:30pm 17.0 11.8 7.3 53 4.9 NE 24 35 13 19 1012.3 - 0.0
17/06:00pm 17.2 12.1 7.5 53 4.9 NE 24 35 13 19 1012.6 1012.7 0.0
17/05:30pm 17.2 12.9 8.0 54 4.7 NE 20 35 11 19 1012.9 - 0.0
17/05:00pm 17.5 12.4 7.7 52 5.0 NE 24 33 13 18 1013.2 - 0.0
17/04:30pm 18.7 13.6 7.8 49 5.6 NE 24 35 13 19 1013.5 - 0.0
17/04:00pm 18.1 12.6 7.5 50 5.4 NNE 26 33 14 18 1013.8 - 0.0
17/03:30pm 18.5 13.2 8.3 51 5.3 NNE 26 35 14 19 1014.0 - 0.0
17/03:00pm 18.1 12.4 8.2 52 5.1 NNE 28 39 15 21 1014.5 1014.5 0.0
17/02:30pm 17.7 12.4 8.4 54 4.8 NE 26 39 14 21 1015.0 - 0.0
17/02:00pm 16.8 11.6 8.7 59 4.2 NE 26 35 14 19 1015.7 - 0.0
17/01:30pm 16.3 10.8 9.0 62 3.8 NE 28 39 15 21 1016.3 - 0.0
17/01:00pm 16.2 11.1 9.3 63 3.6 NE 26 35 14 19 1017.1 - 0.0
17/12:30pm 16.5 11.1 9.6 63 3.6 NE 28 37 15 20 1017.6 - 0.0
17/12:00pm 16.6 11.5 9.1 61 3.9 NE 26 39 14 21 1018.0 1018.1 0.0
17/11:30am 15.6 9.6 8.8 64 3.5 NE 30 39 16 21 1018.5 - 0.0
17/11:00am 15.6 10.6 9.4 66 3.2 NE 26 37 14 20 1018.9 - 0.0
17/10:30am 15.1 9.6 9.1 67 3.1 NE 28 39 15 21 1019.5 - 0.0
17/10:00am 14.8 9.1 8.5 66 3.2 NE 28 37 15 20 1019.9 - 0.0
17/09:30am 14.4 8.6 8.0 65 3.2 NE 28 35 15 19 1020.2 - 0.0
17/09:00am 13.9 8.5 7.9 67 3.0 NE 26 35 14 19 1020.5 1020.6 0.2
17/08:30am 13.0 7.5 7.5 69 2.7 NE 26 35 14 19 1020.8 - 0.2
17/08:00am 12.9 7.3 7.1 68 2.8 NE 26 35 14 19 1020.9 - 0.2
17/07:30am 12.1 6.0 6.7 69 2.6 NE 28 37 15 20 1020.8 - 0.2
17/07:00am 11.6 5.4 6.1 69 2.6 NE 28 37 15 20 1020.8 - 0.2
17/06:30am 11.2 5.3 5.8 69 2.5 NE 26 35 14 19 1020.8 - 0.2
17/06:00am 11.3 4.7 6.2 71 2.4 NE 30 43 16 23 1020.3 1020.4 0.2
17/05:30am 11.3 5.1 6.0 70 2.5 NE 28 41 15 22 1020.5 - 0.2
17/05:00am 11.4 5.2 6.1 70 2.5 NE 28 39 15 21 1020.3 - 0.2
17/04:30am 11.5 4.9 6.2 70 2.5 NE 30 41 16 22 1020.6 - 0.2
17/04:00am 11.5 4.5 6.0 69 2.6 NE 32 43 17 23 1020.9 - 0.2
17/03:30am 11.6 4.5 5.6 66 2.8 NE 32 43 17 23 1021.1 - 0.2
17/03:00am 11.7 5.0 5.7 66 2.8 NE 30 43 16 23 1021.5 1021.5 0.2
17/02:30am 11.7 5.3 7.1 73 2.2 NE 30 43 16 23 1022.0 - 0.2
17/02:00am 11.5 5.6 9.1 85 1.2 NE 30 41 16 22 1022.5 - 0.2
17/01:30am 11.1 5.8 8.5 84 1.3 NE 26 32 14 17 1023.0 - 0.2
17/01:00am 10.7 6.2 8.5 86 1.1 NE 22 32 12 17 1023.3 - 0.2
17/12:30am 10.6 5.1 7.5 81 1.5 NE 26 37 14 20 1023.5 - 0.2
17/12:00am 10.4 5.6 7.3 81 1.5 NE 22 32 12 17 1024.0 1024.1 0.2
 
Date/Time
CST
Temp
°C
App
Temp
°C
Dew
Point
°C
Rel
Hum
%
Delta-T
°C
Wind Press
QNH
hPa
Press
MSL
hPa
Rain since
9am
mm
Dir  Spd
km/h
Gust
km/h
Spd
kts
Gust
kts
16/11:30pm 10.3 5.6 7.6 83 1.3 NE 22 33 12 18 1024.4 - 0.2
16/11:00pm 10.4 5.1 7.0 79 1.6 NE 24 35 13 19 1024.4 - 0.2
16/10:30pm 10.0 4.6 6.4 78 1.7 NE 24 33 13 18 1024.3 - 0.2
16/10:00pm 9.8 4.7 5.9 77 1.8 ENE 22 30 12 16 1024.8 - 0.2
16/09:30pm 10.4 4.0 5.4 71 2.3 NE 28 39 15 21 1024.6 - 0.2

Other Formats:

Comma delimited format used in spreadsheet applications
http://www.bom.gov.au/fwo/IDS60801/IDS60801.95805.axf

JavaScript Object Notation format (JSON) in row-major order
http://www.bom.gov.au/fwo/IDS60801/IDS60801.95805.json